Briefing drone pour Magny-cours

Rechercher une autre localisation

Conditions de vol :


Nous sommes le : Mercredi 14 avril 2021
Il est 23:55 UTC (01:55 LT)

Lever de soleil : 04:34 UTC (06:34 LT)
Coucher de soleil : 19:00 UTC (21:00 LT)

Météo

L'essentiel des conditions de vol

VIGILANCE MÉTÉO FRANCE - Nièvre (58)
Pas de vigilances particulieres
CARTE TEMSI
CARTES DES FRONTS
METAR de LFQG
LFQG 131800Z AUTO 01008KT CAVOK 09/M01 Q1028

Date d'émission: 13/04/2021
Heure d'émission: 18:00 UTC
Vent: 010° pour 8 KT (15 km/h)
Visibilité horizontale: > 10 km
Plafond : Plafond et visibilité OK (CAVOK)
Température: 9 °C
Point de rosée: -1 °C
Humidité: 50%
Pression (QNH): 1028 hPa
Prévision 24h pour Nevers (7 km)
Vent : 17° pour 4 KT (15 km/h)
Temperature Maxi: 7 °C
Temperature Min: 7 °C
Humidité : 55%
Condition : Peu nuageux



Warning: count(): Parameter must be an array or an object that implements Countable in /homepages/6/d509196549/htdocs/droneoxygene/briefing.php on line 743
WEBCAM POUR MAGNY-COURS

Réglementation

Voler en sécurité

CARTES AERONAUTIQUE 1/500.000
CARTES VAC (LFQG)
SUP AIP




Chargement des AIP...
NOTAM (MAGNY-COURS + Terrain à proximité / FIR )




Chargement des NOTAMS...
CONTACT PREFECTURE 58


Avertissement : Les données mises à disposition sont indicatives. Oxygène Drone ne pourra être tenu responsable de dégâts causés aux biens et aux personnes.